createdAt,value
2019-04-28T00:03:05.385Z,13.4
2019-04-28T00:08:13.778Z,13.4
2019-04-28T00:13:24.111Z,13.4
2019-04-28T00:18:30.853Z,13.4
2019-04-28T00:23:39.319Z,13.5
2019-04-28T00:28:47.920Z,13.4
2019-04-28T00:33:56.374Z,13.5
2019-04-28T00:39:05.182Z,13.4
2019-04-28T00:49:22.058Z,13.4
2019-04-28T00:54:30.380Z,13.5
2019-04-28T00:59:38.851Z,13.5
2019-04-28T01:04:47.537Z,13.5
2019-04-28T01:09:56.174Z,13.5
2019-04-28T01:15:04.458Z,13.4
2019-04-28T01:40:47.005Z,13.6
2019-04-28T01:45:55.416Z,13.6
2019-04-28T01:51:03.924Z,13.6
2019-04-28T01:56:12.382Z,13.6
2019-04-28T02:01:20.884Z,13.5
2019-04-28T02:06:34.952Z,13.5
2019-04-28T02:11:37.863Z,13.5
2019-04-28T02:16:46.404Z,13.5
2019-04-28T02:21:54.886Z,13.5
2019-04-28T02:37:20.721Z,13.5
2019-04-28T02:42:28.996Z,13.5
2019-04-28T02:52:46.057Z,13.5
2019-04-28T02:57:54.608Z,13.5
2019-04-28T03:03:03.066Z,13.5
2019-04-28T03:13:20.264Z,13.5
2019-04-28T03:18:28.634Z,13.5
2019-04-28T03:28:45.682Z,13.5
2019-04-28T03:39:02.919Z,13.5
2019-04-28T03:44:11.393Z,13.5
2019-04-28T03:49:19.880Z,13.5
2019-04-28T03:59:36.896Z,13.4
2019-04-28T04:20:10.921Z,13.4
2019-04-28T04:30:28.003Z,13.6
2019-04-28T04:45:53.449Z,13.5
2019-04-28T04:56:10.647Z,13.5
2019-04-28T05:01:18.938Z,13.6
2019-04-28T05:11:35.906Z,13.7
2019-04-28T05:21:52.842Z,14
2019-04-28T05:32:09.825Z,14.2
2019-04-28T05:42:26.718Z,14.3
2019-04-28T05:47:35.340Z,14.4
2019-04-28T06:03:00.519Z,14.7
2019-04-28T06:08:08.934Z,15
2019-04-28T06:13:17.426Z,15.1
2019-04-28T06:23:34.160Z,15.5
2019-04-28T06:44:07.574Z,16.5
2019-04-28T06:49:15.947Z,16.7
2019-04-28T06:54:24.320Z,16.8
2019-04-28T07:04:40.824Z,17.3
2019-04-28T07:09:49.118Z,17.4
2019-04-28T07:14:57.420Z,17.7
2019-04-28T07:25:13.840Z,18.1
2019-04-28T07:40:38.439Z,19
2019-04-28T07:45:46.635Z,19.2
2019-04-28T07:56:02.837Z,19.7
2019-04-28T08:01:10.879Z,19.9
2019-04-28T08:06:19.084Z,20.2
2019-04-28T08:26:51.122Z,21.4
2019-04-28T08:31:59.146Z,21.7
2019-04-28T08:37:07.159Z,21.9
2019-04-28T08:47:23.008Z,21.6
2019-04-28T08:52:31.107Z,21.4
2019-04-28T08:57:39.008Z,20.6
2019-04-28T09:07:55.105Z,19.5
2019-04-28T09:13:03.195Z,19
2019-04-28T09:23:19.465Z,18.5
2019-04-28T09:28:27.707Z,18.2
2019-04-28T09:33:35.723Z,18.1
2019-04-28T09:43:52.071Z,18.1
2019-04-28T09:49:00.274Z,18.3
2019-04-28T09:54:08.465Z,18.6
2019-04-28T10:04:24.736Z,19.1
2019-04-28T10:09:32.897Z,19.3
2019-04-28T10:14:41.095Z,19.5
2019-04-28T10:24:57.211Z,19.9
2019-04-28T10:30:05.316Z,20.3
2019-04-28T10:40:21.357Z,21.2
2019-04-28T10:50:37.264Z,21.9
2019-04-28T11:16:16.767Z,23.2
2019-04-28T11:21:24.648Z,23.4
2019-04-28T11:31:40.258Z,25
2019-04-28T11:41:55.575Z,26.5
2019-04-28T11:52:10.806Z,27.7
2019-04-28T12:02:25.841Z,28.1
2019-04-28T12:12:40.867Z,29
2019-04-28T12:17:48.459Z,29.2
2019-04-28T12:22:55.783Z,29
2019-04-28T12:33:10.755Z,28.5
2019-04-28T12:38:18.274Z,28.5
2019-04-28T12:53:40.717Z,27.7
2019-04-28T12:58:48.233Z,27.2
2019-04-28T13:03:55.767Z,26.7
2019-04-28T13:14:11.067Z,25.4
2019-04-28T13:19:18.675Z,24.8
2019-04-28T13:29:35.155Z,24.2
2019-04-28T13:34:41.739Z,23.9
2019-04-28T13:44:57.344Z,23.8
2019-04-28T13:50:05.168Z,23.8
2019-04-28T13:55:12.857Z,23.8
2019-04-28T14:00:20.653Z,23.9
2019-04-28T14:05:28.456Z,24
2019-04-28T14:10:36.375Z,24.2
2019-04-28T14:15:45.074Z,24.2
2019-04-28T14:36:14.895Z,24.2
2019-04-28T14:46:30.397Z,24.3
2019-04-28T14:56:46.128Z,24.4
2019-04-28T15:07:01.358Z,24.5
2019-04-28T15:17:16.934Z,24.7
2019-04-28T15:27:32.270Z,24.8
2019-04-28T15:48:03.211Z,24.8
2019-04-28T15:58:18.680Z,24.9
2019-04-28T16:29:04.947Z,24.7
2019-04-28T16:39:20.540Z,25.1
2019-04-28T16:49:35.812Z,25.6
2019-04-28T17:10:06.481Z,26.5
2019-04-28T17:20:21.607Z,27.1
2019-04-28T17:30:36.896Z,27.4
2019-04-28T17:40:52.029Z,27.8
2019-04-28T18:01:22.141Z,28.1
2019-04-28T18:11:37.031Z,27.6
2019-04-28T18:21:52.708Z,26.9
2019-04-28T18:32:07.263Z,25.9
2019-04-28T18:42:22.440Z,24.8
2019-04-28T18:52:37.748Z,23.9
2019-04-28T19:02:53.239Z,23
2019-04-28T19:13:08.865Z,22.1
2019-04-28T19:23:24.642Z,21.3
2019-04-28T19:43:56.273Z,19.8
2019-04-28T19:54:12.299Z,19.2
2019-04-28T20:04:28.486Z,18.4
2019-04-28T20:14:45.057Z,17.9
2019-04-28T20:19:52.834Z,17.7
2019-04-28T20:25:04.016Z,17.3
2019-04-28T20:35:17.322Z,17
2019-04-28T20:45:33.746Z,16.6
2019-04-28T20:50:42.085Z,16.3
2019-04-28T20:55:51.023Z,16.1
2019-04-28T21:06:06.862Z,15.7
2019-04-28T21:26:40.137Z,15.2
2019-04-28T21:36:56.768Z,14.8
2019-04-28T21:47:13.509Z,14.6
2019-04-28T21:57:30.216Z,14.4
2019-04-28T22:18:09.396Z,14
2019-04-28T22:28:20.714Z,13.7
2019-04-28T22:38:37.653Z,13.3
2019-04-28T22:48:54.585Z,13.3
2019-04-28T23:09:28.573Z,12.8
2019-04-28T23:19:45.578Z,12.8
2019-04-28T23:30:02.618Z,12.5
2019-04-28T23:40:19.671Z,12.3
2019-04-28T23:50:36.825Z,12.2
